EWG4AD LSZH-EDDK
Flight info
| Callsign | EWG4AD |
|---|---|
| Flight time | N/A |
| Altitude | 30000 |
| Route | VEBIT T10 TORPA DCT EDOPI DCT GIVOR DCT SORAL DCT IBERA/N0344F240 N853 DIK/N0338F230 N853 ARCKY T853 IBESA T860 ERUKI ERUKI1F |
| Aircraft | A320/M-SDE2E3FGIJ1RWXYZ/HB1 |
Departure
| Time | N/A |
|---|---|
| Airport | Zürich Airport (LSZH) |
Arrival
| Time | 2026-04-22 07:09 |
|---|---|
| Airport | Cologne Bonn Airport (EDDK) |
| Time | Latitude | Longitude | Altitude | Speed | Heading |
|---|---|---|---|---|---|
| 2026-04-22 07:00 | 50.74798 | 6.56687 | 11527 ft | 368 kts | 33° |
| 2026-04-22 07:00 | 50.78595 | 6.60221 | 11009 ft | 368 kts | 33° |
| 2026-04-22 07:00 | 50.80797 | 6.62276 | 10765 ft | 367 kts | 33° |
| 2026-04-22 07:01 | 50.82880 | 6.64486 | 10461 ft | 363 kts | 41° |
| 2026-04-22 07:01 | 50.84804 | 6.67064 | 9849 ft | 358 kts | 43° |
| 2026-04-22 07:01 | 50.86667 | 6.69632 | 9069 ft | 352 kts | 43° |
| 2026-04-22 07:01 | 50.88504 | 6.72182 | 8258 ft | 348 kts | 43° |
| 2026-04-22 07:02 | 50.90314 | 6.74687 | 7468 ft | 343 kts | 43° |
| 2026-04-22 07:02 | 50.92023 | 6.77046 | 7195 ft | 312 kts | 43° |
| 2026-04-22 07:02 | 50.93586 | 6.79184 | 6897 ft | 283 kts | 43° |
| 2026-04-22 07:02 | 50.95043 | 6.81162 | 6406 ft | 267 kts | 43° |
| 2026-04-22 07:03 | 50.96414 | 6.83024 | 5894 ft | 253 kts | 43° |
| 2026-04-22 07:03 | 50.97718 | 6.84807 | 5359 ft | 243 kts | 43° |
| 2026-04-22 07:03 | 50.98977 | 6.86543 | 4782 ft | 236 kts | 43° |
| 2026-04-22 07:03 | 51.00096 | 6.88365 | 4296 ft | 223 kts | 60° |
| 2026-04-22 07:04 | 51.00640 | 6.90620 | 3990 ft | 218 kts | 81° |
| 2026-04-22 07:04 | 51.00613 | 6.92988 | 3724 ft | 212 kts | 102° |
| 2026-04-22 07:04 | 51.00059 | 6.95121 | 3538 ft | 209 kts | 122° |
| 2026-04-22 07:04 | 50.99094 | 6.96820 | 3275 ft | 211 kts | 136° |
| 2026-04-22 07:05 | 50.98030 | 6.98366 | 2998 ft | 203 kts | 136° |
| 2026-04-22 07:05 | 50.97008 | 6.99858 | 2726 ft | 196 kts | 135° |
| 2026-04-22 07:05 | 50.96020 | 7.01300 | 2473 ft | 190 kts | 135° |
| 2026-04-22 07:05 | 50.95077 | 7.02673 | 2219 ft | 175 kts | 136° |
| 2026-04-22 07:06 | 50.94219 | 7.03922 | 1960 ft | 162 kts | 136° |
| 2026-04-22 07:06 | 50.93425 | 7.05078 | 1776 ft | 147 kts | 135° |
| 2026-04-22 07:06 | 50.92709 | 7.06110 | 1638 ft | 133 kts | 134° |
| 2026-04-22 07:06 | 50.92045 | 7.07043 | 1457 ft | 127 kts | 136° |
| 2026-04-22 07:07 | 50.91391 | 7.07978 | 1288 ft | 126 kts | 135° |
| 2026-04-22 07:07 | 50.90765 | 7.08948 | 1056 ft | 126 kts | 135° |
| 2026-04-22 07:07 | 50.90117 | 7.09885 | 833 ft | 126 kts | 137° |
| 2026-04-22 07:07 | 50.89467 | 7.10824 | 677 ft | 126 kts | 136° |
| 2026-04-22 07:08 | 50.88824 | 7.11775 | 507 ft | 126 kts | 134° |
| 2026-04-22 07:08 | 50.88177 | 7.12712 | 334 ft | 125 kts | 135° |
| 2026-04-22 07:08 | 50.87546 | 7.13633 | 242 ft | 116 kts | 134° |
| 2026-04-22 07:08 | 50.87073 | 7.14324 | 253 ft | 61 kts | 137° |
| 2026-04-22 07:09 | 50.86885 | 7.14555 | 261 ft | 13 kts | 184° |
| 2026-04-22 07:09 | 50.86867 | 7.14510 | 261 ft | 6 kts | 276° |
| 2026-04-22 07:09 | 50.86881 | 7.14382 | 259 ft | 14 kts | 280° |
| 2026-04-22 07:09 | 50.86899 | 7.14221 | 255 ft | 16 kts | 280° |
| 2026-04-22 07:10 | 50.86918 | 7.14048 | 254 ft | 16 kts | 279° |
| 2026-04-22 07:10 | 50.86961 | 7.13873 | 247 ft | 19 kts | 322° |
| 2026-04-22 07:10 | 50.87074 | 7.13706 | 241 ft | 25 kts | 317° |
| 2026-04-22 07:10 | 50.87219 | 7.13500 | 240 ft | 31 kts | 318° |
| 2026-04-22 07:11 | 50.87388 | 7.13257 | 232 ft | 35 kts | 318° |
| 2026-04-22 07:11 | 50.87565 | 7.12999 | 233 ft | 34 kts | 317° |
| 2026-04-22 07:11 | 50.87743 | 7.12746 | 232 ft | 32 kts | 318° |
| 2026-04-22 07:11 | 50.87880 | 7.12610 | 232 ft | 19 kts | 5° |
| 2026-04-22 07:12 | 50.87954 | 7.12548 | 233 ft | 9 kts | 291° |
| 2026-04-22 07:12 | 50.87938 | 7.12480 | 233 ft | 3 kts | 240° |
| 2026-04-22 07:12 | 50.87935 | 7.12459 | 232 ft | 0 kts | 262° |